FNCA

Details ICAO FNCA (CAB)
Name CABINDA
Region Angola
Timezone Africa/Luanda (UTC+1.0)
Plans Departing 12
Arriving 14
Stats Elevation 66 ft / 20 m (AMSL)
Location -5.596992° 12.188351°
Runways 1
Magnetic Variation 2.689° W
Sunrise 2017-12-17 04:55:22 UTC / 2017-12-17 05:55:22 Local
Sunset 2017-12-17 17:22:04 UTC / 2017-12-17 18:22:04 Local
Advertisement - Login to hide

Runways

ID Width Length Bearing (true) Bearing (mag) Surface Threshold Offset Overrun Length
01 98 ft / 30 m 8,248 ft / 2,514 m 359.08° 1.77° Asphalt 0 ft / 0 m 95 ft / 29 m
19 98 ft / 30 m 8,248 ft / 2,514 m 179.08° 181.77° Asphalt 0 ft / 0 m 135 ft / 41 m

Map

Weather


0- 5 10 15 20 25 30 35+ Temperature / ° C

Clouds and Precipitation
Forecast for 2017-12-17 00:00 UTC. Updated 2 hours ago

Ground ~20,000 ft ~40,000 ft Winds

METAR

Not found

TAF

TAF FNCA 161050Z 1612/1624 24006KT 9999 FEW015 BKN050 PROB30 TEMPO 1614/1618 9000 FEW020 SCT025 FEW030CB BECMG 1620/1622 VRB03KT FEW015 BKN025

Frequencies

Tower 118.30 MHz AFIS
Warning: Do not use this data for real-world aviation or navigation. No guarantee of current accuracy is given.